createdAt,value
2019-03-31T00:01:08.150Z,99.90
2019-03-31T00:03:42.379Z,99.90
2019-03-31T00:06:23.428Z,99.90
2019-03-31T00:09:05.343Z,99.90
2019-03-31T00:11:45.771Z,99.90
2019-03-31T00:14:27.051Z,99.90
2019-03-31T00:17:07.666Z,99.90
2019-03-31T00:19:48.355Z,99.90
2019-03-31T00:22:29.043Z,99.90
2019-03-31T00:25:09.527Z,99.90
2019-03-31T00:27:50.278Z,99.90
2019-03-31T00:30:30.727Z,99.90
2019-03-31T00:33:11.679Z,99.90
2019-03-31T00:35:52.227Z,99.90
2019-03-31T00:38:33.026Z,99.90
2019-03-31T00:41:13.816Z,99.90
2019-03-31T00:43:54.506Z,99.90
2019-03-31T00:46:35.286Z,99.90
2019-03-31T00:49:15.943Z,99.90
2019-03-31T00:51:56.534Z,99.90
2019-03-31T00:54:37.243Z,99.90
2019-03-31T00:57:17.999Z,99.90
2019-03-31T00:59:58.387Z,99.90
2019-03-31T01:02:39.755Z,99.90
2019-03-31T01:05:20.594Z,99.90
2019-03-31T01:08:01.348Z,99.90
2019-03-31T01:10:42.524Z,99.90
2019-03-31T01:13:26.244Z,99.90
2019-03-31T01:16:06.755Z,99.90
2019-03-31T01:18:47.411Z,99.90
2019-03-31T01:21:28.384Z,99.90
2019-03-31T01:24:09.233Z,99.90
2019-03-31T01:26:50.019Z,99.90
2019-03-31T01:29:30.867Z,99.90
2019-03-31T01:32:11.463Z,99.90
2019-03-31T01:34:52.052Z,99.90
2019-03-31T01:37:32.903Z,99.90
2019-03-31T01:40:13.861Z,99.90
2019-03-31T01:42:54.671Z,99.90
2019-03-31T01:45:35.439Z,99.90
2019-03-31T01:48:16.086Z,99.90
2019-03-31T01:50:56.783Z,99.90
2019-03-31T01:53:37.408Z,99.90
2019-03-31T01:56:18.252Z,99.90
2019-03-31T01:58:58.783Z,99.90
2019-03-31T02:01:39.940Z,99.90
2019-03-31T02:04:20.822Z,99.90
2019-03-31T02:07:01.536Z,99.90
2019-03-31T02:09:42.567Z,99.90
2019-03-31T02:12:23.293Z,99.90
2019-03-31T02:15:05.279Z,99.90
2019-03-31T02:17:46.024Z,99.90
2019-03-31T02:20:26.499Z,99.90
2019-03-31T02:23:07.422Z,99.90
2019-03-31T02:25:47.969Z,99.90
2019-03-31T02:28:28.947Z,99.90
2019-03-31T02:31:09.316Z,99.90
2019-03-31T02:33:50.099Z,99.90
2019-03-31T02:36:31.224Z,99.90
2019-03-31T02:39:11.701Z,99.90
2019-03-31T02:41:52.127Z,99.90
2019-03-31T02:44:32.733Z,99.90
2019-03-31T02:47:13.275Z,99.90
2019-03-31T02:49:53.862Z,99.90
2019-03-31T02:52:34.599Z,99.90
2019-03-31T02:55:15.203Z,99.90
2019-03-31T02:57:56.284Z,99.90
2019-03-31T03:00:36.933Z,99.90
2019-03-31T03:03:17.747Z,99.90
2019-03-31T03:05:58.655Z,99.90
2019-03-31T03:08:39.934Z,99.90
2019-03-31T03:11:20.736Z,99.90
2019-03-31T03:14:01.391Z,99.90
2019-03-31T03:16:41.909Z,99.90
2019-03-31T03:19:22.327Z,99.90
2019-03-31T03:22:03.233Z,99.90
2019-03-31T03:24:43.836Z,99.90
2019-03-31T03:27:24.561Z,99.90
2019-03-31T03:30:05.080Z,99.90
2019-03-31T03:33:12.443Z,99.90
2019-03-31T03:35:28.427Z,99.90
2019-03-31T03:38:09.121Z,99.90
2019-03-31T03:40:50.038Z,99.90
2019-03-31T03:43:30.695Z,99.90
2019-03-31T03:46:10.829Z,99.90
2019-03-31T03:48:51.939Z,99.90
2019-03-31T03:51:33.106Z,99.90
2019-03-31T03:54:13.424Z,99.90
2019-03-31T03:56:54.255Z,99.90
2019-03-31T03:59:35.131Z,99.90
2019-03-31T04:02:16.020Z,99.90
2019-03-31T04:04:56.574Z,99.90
2019-03-31T04:07:37.714Z,99.90
2019-03-31T04:10:18.039Z,99.90
2019-03-31T04:12:58.560Z,99.90
2019-03-31T04:15:39.039Z,99.90
2019-03-31T04:18:19.987Z,99.90
2019-03-31T04:21:00.265Z,99.90
2019-03-31T04:23:40.921Z,99.90
2019-03-31T04:26:21.721Z,99.90
2019-03-31T04:29:02.206Z,99.90
2019-03-31T04:31:42.630Z,99.90
2019-03-31T04:34:23.151Z,99.90
2019-03-31T04:37:03.491Z,99.90
2019-03-31T04:39:43.891Z,99.90
2019-03-31T04:42:24.605Z,99.90
2019-03-31T04:45:05.131Z,99.90
2019-03-31T04:47:45.732Z,99.90
2019-03-31T04:50:26.119Z,99.90
2019-03-31T04:53:07.080Z,99.90
2019-03-31T04:55:47.580Z,99.90
2019-03-31T04:58:28.266Z,99.90
2019-03-31T05:01:09.203Z,99.90
2019-03-31T05:04:03.978Z,99.90
2019-03-31T05:06:32.106Z,99.90
2019-03-31T05:09:12.956Z,99.90
2019-03-31T05:11:53.747Z,99.90
2019-03-31T05:14:34.235Z,99.90
2019-03-31T05:17:14.516Z,99.90
2019-03-31T05:19:55.199Z,99.90
2019-03-31T05:22:35.335Z,99.90
2019-03-31T05:25:15.719Z,99.90
2019-03-31T05:27:56.404Z,99.90
2019-03-31T05:30:36.791Z,99.90
2019-03-31T05:33:17.383Z,99.90
2019-03-31T05:35:58.035Z,99.90
2019-03-31T05:38:38.443Z,99.90
2019-03-31T05:41:19.011Z,99.90
2019-03-31T05:44:05.494Z,99.90
2019-03-31T05:46:41.050Z,99.90
2019-03-31T05:49:21.479Z,99.90
2019-03-31T05:52:02.103Z,99.90
2019-03-31T05:54:42.323Z,99.90
2019-03-31T05:57:23.203Z,99.90
2019-03-31T06:00:03.766Z,99.90
2019-03-31T06:02:44.620Z,99.90
2019-03-31T06:05:25.019Z,99.90
2019-03-31T06:08:05.684Z,99.90
2019-03-31T06:10:46.294Z,99.90
2019-03-31T06:13:26.934Z,99.90
2019-03-31T06:16:07.605Z,99.90
2019-03-31T06:18:48.471Z,99.90
2019-03-31T06:21:29.292Z,99.90
2019-03-31T06:24:10.028Z,99.90
2019-03-31T06:26:50.787Z,99.90
2019-03-31T06:29:31.483Z,99.90
2019-03-31T06:32:12.186Z,99.90
2019-03-31T06:34:53.029Z,99.90
2019-03-31T06:37:33.935Z,99.90
2019-03-31T06:40:14.780Z,99.90
2019-03-31T06:42:55.114Z,99.90
2019-03-31T06:45:35.827Z,99.90
2019-03-31T06:48:16.216Z,99.90
2019-03-31T06:50:57.392Z,97.50
2019-03-31T06:53:38.269Z,94.90
2019-03-31T06:56:19.831Z,91.60
2019-03-31T06:59:00.507Z,87.30
2019-03-31T07:01:40.902Z,81.50
2019-03-31T07:04:21.595Z,77.20
2019-03-31T07:07:02.652Z,73.30
2019-03-31T07:09:43.412Z,69.60
2019-03-31T07:12:24.006Z,65.40
2019-03-31T07:17:50.236Z,60.30
2019-03-31T07:20:31.344Z,57.70
2019-03-31T07:23:11.859Z,56.50
2019-03-31T07:25:52.171Z,55.00
2019-03-31T07:28:32.956Z,53.50
2019-03-31T07:31:13.738Z,51.90
2019-03-31T07:33:54.603Z,49.60
2019-03-31T07:36:35.242Z,48.20
2019-03-31T07:39:16.047Z,47.30
2019-03-31T07:41:56.775Z,46.20
2019-03-31T07:44:38.184Z,44.80
2019-03-31T07:47:18.847Z,43.90
2019-03-31T07:49:59.512Z,42.50
2019-03-31T07:52:40.121Z,40.80
2019-03-31T07:55:21.202Z,39.40
2019-03-31T07:58:02.035Z,39.70
2019-03-31T08:00:43.079Z,38.50
2019-03-31T08:03:24.015Z,37.50
2019-03-31T08:06:04.741Z,37.20
2019-03-31T08:08:45.263Z,35.50
2019-03-31T08:11:25.686Z,35.40
2019-03-31T08:14:06.132Z,34.30
2019-03-31T08:16:46.999Z,33.40
2019-03-31T08:19:27.655Z,32.00
2019-03-31T08:22:08.244Z,31.80
2019-03-31T08:24:48.927Z,32.00
2019-03-31T08:27:29.679Z,30.90
2019-03-31T08:30:10.591Z,30.70
2019-03-31T08:32:51.235Z,29.60
2019-03-31T08:35:31.958Z,30.00
2019-03-31T08:38:12.479Z,30.00
2019-03-31T08:40:53.222Z,29.50
2019-03-31T08:43:33.792Z,29.50
2019-03-31T08:46:14.195Z,29.20
2019-03-31T08:48:54.389Z,28.80
2019-03-31T08:51:34.958Z,29.00
2019-03-31T08:54:15.603Z,28.30
2019-03-31T08:56:55.960Z,28.00
2019-03-31T08:59:36.355Z,27.30
2019-03-31T09:02:36.059Z,27.10
2019-03-31T09:05:17.135Z,26.90
2019-03-31T09:07:57.368Z,27.70
2019-03-31T09:10:38.022Z,27.10
2019-03-31T09:13:18.503Z,27.00
2019-03-31T09:15:59.387Z,26.80
2019-03-31T09:18:39.940Z,27.00
2019-03-31T09:21:20.518Z,26.30
2019-03-31T09:24:00.975Z,26.40
2019-03-31T09:26:41.636Z,26.70
2019-03-31T09:29:22.007Z,26.00
2019-03-31T09:32:02.547Z,25.60
2019-03-31T09:34:43.575Z,25.50
2019-03-31T09:37:24.582Z,26.10
2019-03-31T09:40:05.268Z,25.50
2019-03-31T09:45:27.565Z,25.30
2019-03-31T09:48:08.364Z,24.80
2019-03-31T09:50:48.988Z,25.20
2019-03-31T09:53:29.831Z,25.10
2019-03-31T09:56:10.357Z,25.00
2019-03-31T09:58:50.904Z,24.90
2019-03-31T10:01:31.551Z,24.50
2019-03-31T10:04:12.264Z,24.60
2019-03-31T10:06:53.003Z,24.70
2019-03-31T10:09:33.784Z,24.10
2019-03-31T10:12:14.430Z,23.90
2019-03-31T10:14:54.964Z,24.50
2019-03-31T10:17:35.915Z,24.70
2019-03-31T10:20:16.539Z,24.50
2019-03-31T10:22:57.199Z,24.40
2019-03-31T10:25:37.640Z,24.10
2019-03-31T10:28:18.476Z,23.60
2019-03-31T10:30:59.373Z,23.40
2019-03-31T10:33:39.727Z,22.90
2019-03-31T10:36:20.339Z,23.50
2019-03-31T10:39:00.867Z,22.90
2019-03-31T10:41:41.627Z,22.80
2019-03-31T10:44:22.248Z,22.70
2019-03-31T10:47:02.392Z,21.90
2019-03-31T10:49:43.172Z,22.50
2019-03-31T10:52:23.543Z,22.60
2019-03-31T10:55:04.016Z,22.20
2019-03-31T10:57:44.795Z,21.90
2019-03-31T11:00:25.528Z,23.00
2019-03-31T11:03:05.883Z,21.30
2019-03-31T11:05:46.712Z,22.70
2019-03-31T11:08:27.121Z,22.30
2019-03-31T11:11:07.363Z,23.00
2019-03-31T11:13:47.857Z,24.10
2019-03-31T11:16:28.599Z,24.90
2019-03-31T11:19:09.311Z,25.10
2019-03-31T11:21:54.207Z,24.90
2019-03-31T11:24:34.844Z,25.50
2019-03-31T11:27:15.667Z,25.10
2019-03-31T11:29:56.304Z,24.70
2019-03-31T11:32:37.117Z,23.70
2019-03-31T11:35:17.863Z,24.20
2019-03-31T11:37:59.087Z,23.30
2019-03-31T11:40:39.772Z,24.00
2019-03-31T11:43:20.187Z,22.10
2019-03-31T11:46:00.614Z,23.10
2019-03-31T11:48:41.647Z,23.00
2019-03-31T11:51:22.176Z,22.40
2019-03-31T11:54:02.767Z,21.90
2019-03-31T11:56:43.173Z,21.70
2019-03-31T11:59:23.505Z,22.30
2019-03-31T12:02:04.021Z,22.70
2019-03-31T12:04:44.341Z,23.60
2019-03-31T12:07:28.390Z,22.90
2019-03-31T12:10:08.439Z,22.80
2019-03-31T12:12:49.324Z,23.60
2019-03-31T12:15:29.578Z,24.10
2019-03-31T12:18:10.124Z,23.80
2019-03-31T12:20:50.675Z,24.60
2019-03-31T12:23:31.420Z,25.20
2019-03-31T12:26:11.895Z,26.30
2019-03-31T12:28:52.487Z,25.80
2019-03-31T12:31:33.215Z,27.00
2019-03-31T12:34:14.417Z,28.90
2019-03-31T12:36:54.931Z,28.20
2019-03-31T12:39:35.559Z,29.10
2019-03-31T12:42:15.898Z,30.70
2019-03-31T12:44:56.948Z,29.40
2019-03-31T12:47:37.420Z,29.50
2019-03-31T12:50:18.376Z,30.30
2019-03-31T12:52:58.731Z,31.20
2019-03-31T12:55:39.241Z,31.20
2019-03-31T12:58:19.785Z,31.10
2019-03-31T13:01:01.072Z,32.70
2019-03-31T13:03:41.543Z,32.70
2019-03-31T13:06:22.148Z,34.30
2019-03-31T13:09:05.018Z,33.20
2019-03-31T13:11:46.235Z,32.20
2019-03-31T13:14:26.647Z,29.80
2019-03-31T13:17:07.177Z,30.00
2019-03-31T13:19:47.795Z,28.50
2019-03-31T13:22:28.259Z,29.00
2019-03-31T13:25:08.924Z,28.70
2019-03-31T13:27:49.719Z,29.50
2019-03-31T13:30:30.555Z,29.90
2019-03-31T13:33:11.292Z,31.70
2019-03-31T13:35:53.352Z,30.20
2019-03-31T13:38:34.359Z,31.30
2019-03-31T13:41:15.006Z,30.50
2019-03-31T13:43:55.590Z,31.50
2019-03-31T13:46:36.879Z,32.20
2019-03-31T13:49:17.154Z,30.90
2019-03-31T13:51:58.275Z,30.30
2019-03-31T13:54:42.607Z,30.50
2019-03-31T13:57:23.414Z,31.80
2019-03-31T14:00:04.870Z,30.50
2019-03-31T14:02:45.435Z,30.80
2019-03-31T14:05:25.818Z,30.30
2019-03-31T14:08:06.786Z,29.80
2019-03-31T14:10:47.923Z,30.00
2019-03-31T14:13:28.707Z,29.90
2019-03-31T14:16:09.411Z,31.20
2019-03-31T14:18:50.169Z,31.80
2019-03-31T14:21:31.120Z,31.50
2019-03-31T14:24:12.067Z,30.40
2019-03-31T14:26:52.743Z,29.20
2019-03-31T14:29:33.563Z,30.00
2019-03-31T14:32:14.492Z,30.40
2019-03-31T14:34:55.315Z,31.20
2019-03-31T14:37:36.555Z,31.20
2019-03-31T14:40:17.659Z,30.10
2019-03-31T14:42:58.502Z,31.70
2019-03-31T14:45:38.889Z,31.10
2019-03-31T14:48:19.471Z,31.70
2019-03-31T14:51:00.077Z,31.00
2019-03-31T14:53:40.509Z,31.90
2019-03-31T14:56:21.327Z,32.50
2019-03-31T14:59:01.959Z,32.50
2019-03-31T15:01:42.719Z,33.70
2019-03-31T15:04:23.520Z,32.10
2019-03-31T15:07:04.233Z,33.30
2019-03-31T15:09:45.007Z,34.60
2019-03-31T15:12:25.723Z,34.10
2019-03-31T15:15:06.969Z,33.30
2019-03-31T15:17:47.444Z,32.70
2019-03-31T15:20:28.023Z,34.40
2019-03-31T15:23:08.667Z,36.00
2019-03-31T15:25:49.127Z,37.80
2019-03-31T15:28:29.699Z,39.20
2019-03-31T15:31:10.217Z,40.80
2019-03-31T15:33:51.143Z,42.00
2019-03-31T15:36:31.607Z,42.60
2019-03-31T15:39:12.076Z,43.40
2019-03-31T15:41:52.599Z,44.50
2019-03-31T15:44:33.483Z,44.10
2019-03-31T15:47:14.062Z,45.30
2019-03-31T15:49:55.040Z,45.20
2019-03-31T15:52:35.619Z,46.30
2019-03-31T15:55:16.374Z,48.00
2019-03-31T15:57:56.962Z,48.10
2019-03-31T16:00:37.687Z,48.50
2019-03-31T16:03:18.435Z,49.40
2019-03-31T16:05:59.163Z,50.30
2019-03-31T16:08:39.823Z,50.20
2019-03-31T16:11:20.480Z,51.50
2019-03-31T16:14:00.992Z,51.60
2019-03-31T16:16:41.575Z,51.20
2019-03-31T16:19:22.441Z,52.50
2019-03-31T16:22:03.814Z,53.00
2019-03-31T16:24:48.890Z,53.00
2019-03-31T16:27:29.103Z,54.50
2019-03-31T16:30:09.591Z,55.40
2019-03-31T16:32:50.161Z,55.50
2019-03-31T16:35:30.882Z,57.30
2019-03-31T16:38:11.899Z,58.10
2019-03-31T16:40:52.327Z,58.20
2019-03-31T16:43:33.080Z,59.20
2019-03-31T16:46:13.790Z,59.70
2019-03-31T16:48:54.319Z,61.10
2019-03-31T16:51:34.642Z,62.30
2019-03-31T16:54:15.049Z,64.00
2019-03-31T16:56:55.848Z,65.50
2019-03-31T16:59:36.360Z,65.90
2019-03-31T17:02:17.216Z,67.90
2019-03-31T17:04:57.834Z,69.40
2019-03-31T17:07:38.733Z,70.20
2019-03-31T17:10:19.574Z,72.30
2019-03-31T17:13:00.467Z,73.80
2019-03-31T17:15:40.955Z,77.60
2019-03-31T17:18:21.831Z,79.50
2019-03-31T17:21:02.495Z,80.50
2019-03-31T17:23:42.823Z,83.30
2019-03-31T17:26:23.445Z,86.60
2019-03-31T17:29:04.688Z,88.30
2019-03-31T17:31:45.198Z,90.40
2019-03-31T17:34:25.928Z,90.70
2019-03-31T17:37:06.824Z,91.80
2019-03-31T17:39:47.747Z,93.00
2019-03-31T17:42:28.491Z,94.30
2019-03-31T17:45:09.619Z,94.70
2019-03-31T17:47:50.392Z,94.80
2019-03-31T17:50:31.014Z,95.60
2019-03-31T17:53:12.059Z,96.10
2019-03-31T17:55:52.639Z,96.30
2019-03-31T18:04:03.983Z,97.90
2019-03-31T18:09:28.377Z,99.00
2019-03-31T18:12:16.331Z,99.40
2019-03-31T18:15:24.791Z,99.90
2019-03-31T18:18:12.872Z,99.90
2019-03-31T18:21:00.598Z,99.90
2019-03-31T18:23:48.571Z,99.90
2019-03-31T18:26:36.314Z,99.90
2019-03-31T18:29:24.064Z,99.90
2019-03-31T18:32:12.015Z,99.90
2019-03-31T18:35:00.256Z,99.90
2019-03-31T18:37:49.769Z,99.90
2019-03-31T18:40:38.038Z,99.90
2019-03-31T18:43:25.979Z,99.90
2019-03-31T18:46:13.794Z,99.90
2019-03-31T18:49:03.159Z,99.90
2019-03-31T18:51:50.874Z,99.90
2019-03-31T18:54:57.784Z,99.90
2019-03-31T18:57:46.982Z,99.90
2019-03-31T19:00:53.895Z,99.90
2019-03-31T19:04:00.799Z,99.90
2019-03-31T19:06:50.255Z,99.90
2019-03-31T19:09:57.376Z,99.90
2019-03-31T19:13:04.310Z,99.90
2019-03-31T19:16:12.253Z,99.90
2019-03-31T19:22:27.907Z,99.90
2019-03-31T19:25:34.811Z,99.90
2019-03-31T19:28:41.963Z,99.90
2019-03-31T19:31:48.879Z,99.90
2019-03-31T19:34:55.783Z,99.90
2019-03-31T19:38:02.733Z,99.90
2019-03-31T19:41:09.872Z,99.90
2019-03-31T19:44:16.779Z,99.90
2019-03-31T19:50:18.606Z,99.90
2019-03-31T19:53:25.524Z,99.90
2019-03-31T19:56:25.998Z,99.90
2019-03-31T19:59:25.552Z,99.90
2019-03-31T20:02:26.035Z,99.90
2019-03-31T20:11:27.805Z,99.90
2019-03-31T20:14:28.887Z,99.90
2019-03-31T20:20:18.591Z,99.90
2019-03-31T20:23:04.163Z,99.90
2019-03-31T20:25:47.035Z,99.90
2019-03-31T20:28:48.090Z,99.90
2019-03-31T20:31:33.455Z,99.90
2019-03-31T20:34:34.651Z,99.90
2019-03-31T20:43:35.043Z,99.90
2019-03-31T20:46:15.687Z,99.90
2019-03-31T20:48:56.462Z,99.90
2019-03-31T20:51:37.355Z,99.90
2019-03-31T20:54:17.758Z,99.90
2019-03-31T20:56:58.508Z,99.90
2019-03-31T20:59:42.350Z,99.90
2019-03-31T21:02:22.667Z,99.90
2019-03-31T21:05:03.643Z,99.90
2019-03-31T21:07:44.515Z,99.90
2019-03-31T21:10:25.071Z,99.90
2019-03-31T21:13:05.511Z,99.90
2019-03-31T21:15:46.197Z,99.90
2019-03-31T21:18:26.707Z,99.90
2019-03-31T21:21:07.331Z,99.90
2019-03-31T21:23:48.153Z,99.90
2019-03-31T21:26:28.691Z,99.90
2019-03-31T21:29:09.535Z,99.90
2019-03-31T21:31:50.239Z,99.90
2019-03-31T21:34:30.607Z,99.90
2019-03-31T21:37:10.915Z,99.90
2019-03-31T21:39:52.215Z,99.90
2019-03-31T21:42:32.730Z,99.90
2019-03-31T21:45:13.528Z,99.90
2019-03-31T21:47:53.758Z,99.90
2019-03-31T21:50:34.589Z,99.90
2019-03-31T21:53:15.390Z,99.90
2019-03-31T21:55:56.184Z,99.90
2019-03-31T21:58:36.719Z,99.90
2019-03-31T22:01:17.408Z,99.90
2019-03-31T22:03:58.138Z,99.90
2019-03-31T22:06:38.847Z,99.90
2019-03-31T22:09:19.247Z,99.90
2019-03-31T22:12:00.371Z,99.90
2019-03-31T22:14:41.113Z,99.90
2019-03-31T22:17:21.690Z,99.90
2019-03-31T22:20:02.900Z,99.90
2019-03-31T22:22:43.631Z,99.90
2019-03-31T22:25:24.612Z,99.90
2019-03-31T22:28:04.803Z,99.90
2019-03-31T22:30:45.585Z,99.90
2019-03-31T22:33:26.431Z,99.90
2019-03-31T22:36:27.255Z,99.90
2019-03-31T22:39:07.393Z,99.90
2019-03-31T22:41:48.163Z,99.90
2019-03-31T22:44:28.659Z,99.90
2019-03-31T22:47:12.340Z,99.90
2019-03-31T22:49:52.567Z,99.90
2019-03-31T22:52:33.071Z,99.90
2019-03-31T22:55:13.631Z,99.90
2019-03-31T22:57:54.096Z,99.90
2019-03-31T23:00:34.676Z,99.90
2019-03-31T23:03:15.294Z,99.90
2019-03-31T23:05:55.931Z,99.90
2019-03-31T23:08:36.589Z,99.90
2019-03-31T23:11:17.622Z,99.90
2019-03-31T23:13:58.539Z,99.90
2019-03-31T23:16:38.847Z,99.90
2019-03-31T23:19:19.527Z,99.90
2019-03-31T23:22:00.075Z,99.90
2019-03-31T23:24:41.039Z,99.90
2019-03-31T23:27:22.011Z,99.90
2019-03-31T23:30:04.514Z,99.90
2019-03-31T23:32:44.793Z,99.90
2019-03-31T23:35:25.680Z,99.90
2019-03-31T23:38:06.480Z,99.90
2019-03-31T23:40:46.679Z,99.90
2019-03-31T23:43:27.380Z,99.90
2019-03-31T23:46:08.137Z,99.90
2019-03-31T23:48:48.831Z,99.90
2019-03-31T23:51:29.663Z,99.90
2019-03-31T23:54:10.472Z,99.90
2019-03-31T23:56:51.312Z,99.90
2019-03-31T23:59:31.848Z,99.90
